sensor_id;sensor_type;location;lat;lon;timestamp;P1;durP1;ratioP1;P2;durP2;ratioP2
10641;SDS011;5369;49.586;8.646;2023-12-20T00:01:11;15.27;;;10.83;;
10641;SDS011;5369;49.586;8.646;2023-12-20T00:03:37;14.90;;;11.00;;
10641;SDS011;5369;49.586;8.646;2023-12-20T00:06:03;15.20;;;10.80;;
10641;SDS011;5369;49.586;8.646;2023-12-20T00:08:29;14.37;;;10.77;;
10641;SDS011;5369;49.586;8.646;2023-12-20T00:10:56;16.20;;;11.53;;
10641;SDS011;5369;49.586;8.646;2023-12-20T00:13:22;14.87;;;11.03;;
10641;SDS011;5369;49.586;8.646;2023-12-20T00:15:48;14.40;;;11.83;;
10641;SDS011;5369;49.586;8.646;2023-12-20T00:18:14;14.83;;;11.13;;
10641;SDS011;5369;49.586;8.646;2023-12-20T00:20:40;12.63;;;10.17;;
10641;SDS011;5369;49.586;8.646;2023-12-20T00:23:06;12.83;;;10.53;;
10641;SDS011;5369;49.586;8.646;2023-12-20T00:25:33;15.00;;;10.67;;
10641;SDS011;5369;49.586;8.646;2023-12-20T00:28:00;13.07;;;10.27;;
10641;SDS011;5369;49.586;8.646;2023-12-20T00:30:27;12.70;;;9.97;;
10641;SDS011;5369;49.586;8.646;2023-12-20T00:32:54;14.07;;;10.47;;
10641;SDS011;5369;49.586;8.646;2023-12-20T00:35:20;12.93;;;10.10;;
10641;SDS011;5369;49.586;8.646;2023-12-20T00:37:46;14.37;;;10.93;;
10641;SDS011;5369;49.586;8.646;2023-12-20T00:40:12;15.57;;;11.47;;
10641;SDS011;5369;49.586;8.646;2023-12-20T00:42:38;13.10;;;10.00;;
10641;SDS011;5369;49.586;8.646;2023-12-20T00:45:05;11.87;;;9.37;;
10641;SDS011;5369;49.586;8.646;2023-12-20T00:47:31;12.90;;;10.57;;
10641;SDS011;5369;49.586;8.646;2023-12-20T00:49:57;14.97;;;9.30;;
10641;SDS011;5369;49.586;8.646;2023-12-20T00:52:24;13.97;;;10.13;;
10641;SDS011;5369;49.586;8.646;2023-12-20T00:54:50;12.17;;;9.53;;
10641;SDS011;5369;49.586;8.646;2023-12-20T00:57:17;13.83;;;9.80;;
10641;SDS011;5369;49.586;8.646;2023-12-20T00:59:43;12.33;;;9.90;;
10641;SDS011;5369;49.586;8.646;2023-12-20T01:02:09;13.33;;;9.57;;
10641;SDS011;5369;49.586;8.646;2023-12-20T01:04:35;10.70;;;8.77;;
10641;SDS011;5369;49.586;8.646;2023-12-20T01:07:01;12.47;;;9.10;;
10641;SDS011;5369;49.586;8.646;2023-12-20T01:09:27;13.43;;;10.13;;
10641;SDS011;5369;49.586;8.646;2023-12-20T01:11:54;11.63;;;8.67;;
10641;SDS011;5369;49.586;8.646;2023-12-20T01:14:20;11.40;;;8.83;;
10641;SDS011;5369;49.586;8.646;2023-12-20T01:16:46;11.03;;;8.93;;
10641;SDS011;5369;49.586;8.646;2023-12-20T01:19:12;11.27;;;8.97;;
10641;SDS011;5369;49.586;8.646;2023-12-20T01:21:39;11.97;;;9.03;;
10641;SDS011;5369;49.586;8.646;2023-12-20T01:24:05;13.40;;;9.17;;
10641;SDS011;5369;49.586;8.646;2023-12-20T01:26:31;12.70;;;9.23;;
10641;SDS011;5369;49.586;8.646;2023-12-20T01:28:57;12.47;;;9.03;;
10641;SDS011;5369;49.586;8.646;2023-12-20T01:31:23;10.77;;;8.43;;
10641;SDS011;5369;49.586;8.646;2023-12-20T01:33:50;11.43;;;8.30;;
10641;SDS011;5369;49.586;8.646;2023-12-20T01:36:16;11.73;;;9.17;;
10641;SDS011;5369;49.586;8.646;2023-12-20T01:38:42;9.90;;;8.00;;
10641;SDS011;5369;49.586;8.646;2023-12-20T01:41:08;11.13;;;7.93;;
10641;SDS011;5369;49.586;8.646;2023-12-20T01:43:34;9.97;;;7.97;;
10641;SDS011;5369;49.586;8.646;2023-12-20T01:46:01;11.53;;;8.40;;
10641;SDS011;5369;49.586;8.646;2023-12-20T01:48:28;9.90;;;7.13;;
10641;SDS011;5369;49.586;8.646;2023-12-20T01:50:57;9.37;;;7.40;;
10641;SDS011;5369;49.586;8.646;2023-12-20T01:53:23;11.97;;;8.63;;
10641;SDS011;5369;49.586;8.646;2023-12-20T01:55:51;9.57;;;7.33;;
10641;SDS011;5369;49.586;8.646;2023-12-20T01:58:18;11.50;;;9.10;;
10641;SDS011;5369;49.586;8.646;2023-12-20T02:00:44;10.20;;;8.00;;
10641;SDS011;5369;49.586;8.646;2023-12-20T02:03:10;9.47;;;7.23;;
10641;SDS011;5369;49.586;8.646;2023-12-20T02:05:38;10.50;;;7.80;;
10641;SDS011;5369;49.586;8.646;2023-12-20T02:08:05;8.50;;;6.77;;
10641;SDS011;5369;49.586;8.646;2023-12-20T02:10:32;8.70;;;7.10;;
10641;SDS011;5369;49.586;8.646;2023-12-20T02:12:58;9.00;;;7.33;;
10641;SDS011;5369;49.586;8.646;2023-12-20T02:15:24;10.30;;;7.13;;
10641;SDS011;5369;49.586;8.646;2023-12-20T02:17:50;8.30;;;6.90;;
10641;SDS011;5369;49.586;8.646;2023-12-20T02:20:17;9.97;;;8.60;;
10641;SDS011;5369;49.586;8.646;2023-12-20T02:22:43;8.20;;;7.20;;
10641;SDS011;5369;49.586;8.646;2023-12-20T02:25:09;9.40;;;7.60;;
10641;SDS011;5369;49.586;8.646;2023-12-20T02:27:36;9.07;;;7.03;;
10641;SDS011;5369;49.586;8.646;2023-12-20T02:30:02;10.23;;;6.90;;
10641;SDS011;5369;49.586;8.646;2023-12-20T02:32:28;7.97;;;6.20;;
10641;SDS011;5369;49.586;8.646;2023-12-20T02:34:54;7.90;;;6.80;;
10641;SDS011;5369;49.586;8.646;2023-12-20T02:37:21;8.30;;;6.30;;
10641;SDS011;5369;49.586;8.646;2023-12-20T02:39:47;7.27;;;6.17;;
10641;SDS011;5369;49.586;8.646;2023-12-20T02:42:14;7.53;;;5.97;;
10641;SDS011;5369;49.586;8.646;2023-12-20T02:44:40;9.00;;;6.73;;
10641;SDS011;5369;49.586;8.646;2023-12-20T02:47:06;7.90;;;6.33;;
10641;SDS011;5369;49.586;8.646;2023-12-20T02:49:32;8.27;;;6.33;;
10641;SDS011;5369;49.586;8.646;2023-12-20T02:51:58;8.33;;;5.90;;
10641;SDS011;5369;49.586;8.646;2023-12-20T02:54:24;7.10;;;5.90;;
10641;SDS011;5369;49.586;8.646;2023-12-20T02:56:50;7.80;;;6.17;;
10641;SDS011;5369;49.586;8.646;2023-12-20T02:59:16;6.97;;;5.97;;
10641;SDS011;5369;49.586;8.646;2023-12-20T03:01:46;7.47;;;6.10;;
10641;SDS011;5369;49.586;8.646;2023-12-20T03:04:12;7.43;;;5.90;;
10641;SDS011;5369;49.586;8.646;2023-12-20T03:06:38;9.07;;;6.57;;
10641;SDS011;5369;49.586;8.646;2023-12-20T03:09:04;8.47;;;6.20;;
10641;SDS011;5369;49.586;8.646;2023-12-20T03:11:31;9.20;;;6.47;;
10641;SDS011;5369;49.586;8.646;2023-12-20T03:13:57;8.83;;;6.40;;
10641;SDS011;5369;49.586;8.646;2023-12-20T03:16:23;8.87;;;6.73;;
10641;SDS011;5369;49.586;8.646;2023-12-20T03:18:49;7.03;;;5.83;;
10641;SDS011;5369;49.586;8.646;2023-12-20T03:21:15;10.57;;;6.43;;
10641;SDS011;5369;49.586;8.646;2023-12-20T03:23:42;8.33;;;6.60;;
10641;SDS011;5369;49.586;8.646;2023-12-20T03:26:08;8.47;;;6.77;;
10641;SDS011;5369;49.586;8.646;2023-12-20T03:28:34;9.43;;;6.83;;
10641;SDS011;5369;49.586;8.646;2023-12-20T03:31:01;8.13;;;6.53;;
10641;SDS011;5369;49.586;8.646;2023-12-20T03:33:28;9.30;;;6.73;;
10641;SDS011;5369;49.586;8.646;2023-12-20T03:35:54;10.20;;;6.90;;
10641;SDS011;5369;49.586;8.646;2023-12-20T03:38:20;10.83;;;7.27;;
10641;SDS011;5369;49.586;8.646;2023-12-20T03:40:49;10.10;;;7.70;;
10641;SDS011;5369;49.586;8.646;2023-12-20T03:43:15;8.67;;;6.97;;
10641;SDS011;5369;49.586;8.646;2023-12-20T03:45:41;10.17;;;7.63;;
10641;SDS011;5369;49.586;8.646;2023-12-20T03:48:08;8.20;;;6.70;;
10641;SDS011;5369;49.586;8.646;2023-12-20T03:50:34;7.77;;;6.87;;
10641;SDS011;5369;49.586;8.646;2023-12-20T03:53:01;9.23;;;6.63;;
10641;SDS011;5369;49.586;8.646;2023-12-20T03:55:27;8.07;;;6.83;;
10641;SDS011;5369;49.586;8.646;2023-12-20T03:57:53;9.80;;;7.77;;
10641;SDS011;5369;49.586;8.646;2023-12-20T04:00:19;9.87;;;7.30;;
10641;SDS011;5369;49.586;8.646;2023-12-20T04:02:45;10.10;;;7.27;;
10641;SDS011;5369;49.586;8.646;2023-12-20T04:05:11;8.53;;;6.77;;
10641;SDS011;5369;49.586;8.646;2023-12-20T04:07:38;8.63;;;7.23;;
10641;SDS011;5369;49.586;8.646;2023-12-20T04:10:04;8.83;;;7.30;;
10641;SDS011;5369;49.586;8.646;2023-12-20T04:12:31;8.50;;;7.47;;
10641;SDS011;5369;49.586;8.646;2023-12-20T04:14:57;9.73;;;7.87;;
10641;SDS011;5369;49.586;8.646;2023-12-20T04:17:23;8.50;;;7.17;;
10641;SDS011;5369;49.586;8.646;2023-12-20T04:19:50;8.97;;;7.17;;
10641;SDS011;5369;49.586;8.646;2023-12-20T04:22:16;8.20;;;6.37;;
10641;SDS011;5369;49.586;8.646;2023-12-20T04:24:43;9.17;;;6.37;;
10641;SDS011;5369;49.586;8.646;2023-12-20T04:27:09;8.43;;;7.10;;
10641;SDS011;5369;49.586;8.646;2023-12-20T04:29:35;7.77;;;6.93;;
10641;SDS011;5369;49.586;8.646;2023-12-20T04:32:01;8.57;;;7.17;;
10641;SDS011;5369;49.586;8.646;2023-12-20T04:34:27;8.30;;;7.40;;
10641;SDS011;5369;49.586;8.646;2023-12-20T04:36:53;6.73;;;6.03;;
10641;SDS011;5369;49.586;8.646;2023-12-20T04:39:19;7.47;;;6.20;;
10641;SDS011;5369;49.586;8.646;2023-12-20T04:41:46;6.83;;;5.97;;
10641;SDS011;5369;49.586;8.646;2023-12-20T04:44:13;7.53;;;5.37;;
10641;SDS011;5369;49.586;8.646;2023-12-20T04:46:39;8.13;;;5.80;;
10641;SDS011;5369;49.586;8.646;2023-12-20T04:49:05;8.53;;;6.20;;
10641;SDS011;5369;49.586;8.646;2023-12-20T04:51:35;5.73;;;5.03;;
10641;SDS011;5369;49.586;8.646;2023-12-20T04:54:01;8.10;;;5.73;;
10641;SDS011;5369;49.586;8.646;2023-12-20T04:56:27;7.10;;;5.47;;
10641;SDS011;5369;49.586;8.646;2023-12-20T04:58:54;7.13;;;5.67;;
10641;SDS011;5369;49.586;8.646;2023-12-20T05:01:20;7.33;;;5.83;;
10641;SDS011;5369;49.586;8.646;2023-12-20T05:03:46;6.60;;;5.27;;
10641;SDS011;5369;49.586;8.646;2023-12-20T05:06:12;8.83;;;6.00;;
10641;SDS011;5369;49.586;8.646;2023-12-20T05:08:40;7.20;;;5.87;;
10641;SDS011;5369;49.586;8.646;2023-12-20T05:11:06;6.40;;;5.43;;
10641;SDS011;5369;49.586;8.646;2023-12-20T05:13:32;7.10;;;5.87;;
10641;SDS011;5369;49.586;8.646;2023-12-20T05:15:58;10.23;;;6.80;;
10641;SDS011;5369;49.586;8.646;2023-12-20T05:18:24;10.70;;;6.20;;
10641;SDS011;5369;49.586;8.646;2023-12-20T05:20:50;8.90;;;5.73;;
10641;SDS011;5369;49.586;8.646;2023-12-20T05:23:17;7.33;;;5.00;;
10641;SDS011;5369;49.586;8.646;2023-12-20T05:25:43;9.33;;;6.57;;
10641;SDS011;5369;49.586;8.646;2023-12-20T05:28:09;7.03;;;5.53;;
10641;SDS011;5369;49.586;8.646;2023-12-20T05:30:35;6.53;;;5.17;;
10641;SDS011;5369;49.586;8.646;2023-12-20T05:33:02;6.30;;;5.30;;
10641;SDS011;5369;49.586;8.646;2023-12-20T05:35:28;7.97;;;5.80;;
10641;SDS011;5369;49.586;8.646;2023-12-20T05:37:54;9.30;;;7.30;;
10641;SDS011;5369;49.586;8.646;2023-12-20T05:40:20;9.03;;;7.13;;
10641;SDS011;5369;49.586;8.646;2023-12-20T05:42:46;8.67;;;6.20;;
10641;SDS011;5369;49.586;8.646;2023-12-20T05:45:14;7.57;;;5.33;;
10641;SDS011;5369;49.586;8.646;2023-12-20T05:47:40;6.87;;;5.33;;
10641;SDS011;5369;49.586;8.646;2023-12-20T05:50:06;6.13;;;5.00;;
10641;SDS011;5369;49.586;8.646;2023-12-20T05:52:33;5.83;;;5.10;;
10641;SDS011;5369;49.586;8.646;2023-12-20T05:54:59;8.60;;;6.20;;
10641;SDS011;5369;49.586;8.646;2023-12-20T05:57:29;9.50;;;6.17;;
10641;SDS011;5369;49.586;8.646;2023-12-20T05:59:55;10.30;;;6.70;;
10641;SDS011;5369;49.586;8.646;2023-12-20T06:02:21;8.00;;;6.17;;
10641;SDS011;5369;49.586;8.646;2023-12-20T06:04:47;5.50;;;4.83;;
10641;SDS011;5369;49.586;8.646;2023-12-20T06:07:13;6.27;;;5.00;;
10641;SDS011;5369;49.586;8.646;2023-12-20T06:09:40;8.30;;;6.20;;
10641;SDS011;5369;49.586;8.646;2023-12-20T06:12:06;6.77;;;4.93;;
10641;SDS011;5369;49.586;8.646;2023-12-20T06:14:33;7.87;;;6.20;;
10641;SDS011;5369;49.586;8.646;2023-12-20T06:17:00;5.47;;;4.97;;
10641;SDS011;5369;49.586;8.646;2023-12-20T06:19:29;5.70;;;5.10;;
10641;SDS011;5369;49.586;8.646;2023-12-20T06:21:55;5.27;;;4.57;;
10641;SDS011;5369;49.586;8.646;2023-12-20T06:24:21;6.50;;;5.30;;
10641;SDS011;5369;49.586;8.646;2023-12-20T06:26:47;7.07;;;5.20;;
10641;SDS011;5369;49.586;8.646;2023-12-20T06:29:13;5.73;;;5.10;;
10641;SDS011;5369;49.586;8.646;2023-12-20T06:31:39;7.63;;;6.00;;
10641;SDS011;5369;49.586;8.646;2023-12-20T06:34:06;7.03;;;5.57;;
10641;SDS011;5369;49.586;8.646;2023-12-20T06:36:32;11.47;;;7.30;;
10641;SDS011;5369;49.586;8.646;2023-12-20T06:38:58;10.43;;;7.23;;
10641;SDS011;5369;49.586;8.646;2023-12-20T06:41:24;9.03;;;7.33;;
10641;SDS011;5369;49.586;8.646;2023-12-20T06:43:51;11.60;;;6.57;;
10641;SDS011;5369;49.586;8.646;2023-12-20T06:46:18;6.80;;;5.80;;
10641;SDS011;5369;49.586;8.646;2023-12-20T06:48:44;9.73;;;6.70;;
10641;SDS011;5369;49.586;8.646;2023-12-20T06:51:16;6.43;;;5.17;;
10641;SDS011;5369;49.586;8.646;2023-12-20T06:53:42;9.63;;;6.63;;
10641;SDS011;5369;49.586;8.646;2023-12-20T06:56:10;7.90;;;6.10;;
10641;SDS011;5369;49.586;8.646;2023-12-20T06:58:39;8.53;;;6.73;;
10641;SDS011;5369;49.586;8.646;2023-12-20T07:01:05;8.13;;;6.53;;
10641;SDS011;5369;49.586;8.646;2023-12-20T07:03:31;9.00;;;6.00;;
10641;SDS011;5369;49.586;8.646;2023-12-20T07:05:57;7.50;;;6.10;;
10641;SDS011;5369;49.586;8.646;2023-12-20T07:08:24;7.47;;;5.87;;
10641;SDS011;5369;49.586;8.646;2023-12-20T07:10:50;10.17;;;7.60;;
10641;SDS011;5369;49.586;8.646;2023-12-20T07:13:16;10.27;;;8.32;;
10641;SDS011;5369;49.586;8.646;2023-12-20T07:15:42;10.50;;;7.07;;
10641;SDS011;5369;49.586;8.646;2023-12-20T07:18:08;7.63;;;6.47;;
10641;SDS011;5369;49.586;8.646;2023-12-20T07:20:34;9.13;;;6.57;;
10641;SDS011;5369;49.586;8.646;2023-12-20T07:23:00;7.80;;;5.77;;
10641;SDS011;5369;49.586;8.646;2023-12-20T07:25:26;8.50;;;6.00;;
10641;SDS011;5369;49.586;8.646;2023-12-20T07:27:52;8.03;;;6.30;;
10641;SDS011;5369;49.586;8.646;2023-12-20T07:30:19;9.07;;;6.57;;
10641;SDS011;5369;49.586;8.646;2023-12-20T07:32:45;9.70;;;5.90;;
10641;SDS011;5369;49.586;8.646;2023-12-20T07:35:12;7.97;;;6.47;;
10641;SDS011;5369;49.586;8.646;2023-12-20T07:37:38;8.20;;;5.60;;
10641;SDS011;5369;49.586;8.646;2023-12-20T07:40:04;9.87;;;7.00;;
10641;SDS011;5369;49.586;8.646;2023-12-20T07:42:31;7.87;;;5.93;;
10641;SDS011;5369;49.586;8.646;2023-12-20T07:44:58;9.10;;;6.20;;
10641;SDS011;5369;49.586;8.646;2023-12-20T07:47:24;7.37;;;5.80;;
10641;SDS011;5369;49.586;8.646;2023-12-20T07:49:51;7.93;;;5.90;;
10641;SDS011;5369;49.586;8.646;2023-12-20T07:52:17;6.77;;;5.50;;
10641;SDS011;5369;49.586;8.646;2023-12-20T07:54:44;9.70;;;6.60;;
10641;SDS011;5369;49.586;8.646;2023-12-20T07:57:11;12.10;;;8.20;;
10641;SDS011;5369;49.586;8.646;2023-12-20T07:59:37;11.53;;;8.00;;
10641;SDS011;5369;49.586;8.646;2023-12-20T08:02:03;12.10;;;8.30;;
10641;SDS011;5369;49.586;8.646;2023-12-20T08:04:29;9.07;;;7.70;;
10641;SDS011;5369;49.586;8.646;2023-12-20T08:06:55;11.63;;;7.60;;
10641;SDS011;5369;49.586;8.646;2023-12-20T08:09:21;11.87;;;6.63;;
10641;SDS011;5369;49.586;8.646;2023-12-20T08:11:48;11.37;;;7.70;;
10641;SDS011;5369;49.586;8.646;2023-12-20T08:14:14;9.27;;;6.30;;
10641;SDS011;5369;49.586;8.646;2023-12-20T08:16:40;11.20;;;7.37;;
10641;SDS011;5369;49.586;8.646;2023-12-20T08:19:06;11.33;;;7.10;;
10641;SDS011;5369;49.586;8.646;2023-12-20T08:21:33;11.77;;;6.97;;
10641;SDS011;5369;49.586;8.646;2023-12-20T08:23:59;9.13;;;6.47;;
10641;SDS011;5369;49.586;8.646;2023-12-20T08:26:28;8.13;;;6.00;;
10641;SDS011;5369;49.586;8.646;2023-12-20T08:28:54;10.23;;;6.90;;
10641;SDS011;5369;49.586;8.646;2023-12-20T08:31:20;9.83;;;6.00;;
10641;SDS011;5369;49.586;8.646;2023-12-20T08:33:47;9.30;;;5.40;;
10641;SDS011;5369;49.586;8.646;2023-12-20T08:36:13;9.73;;;6.53;;
10641;SDS011;5369;49.586;8.646;2023-12-20T08:38:40;11.70;;;6.70;;
10641;SDS011;5369;49.586;8.646;2023-12-20T08:41:06;7.43;;;5.57;;
10641;SDS011;5369;49.586;8.646;2023-12-20T08:43:33;8.37;;;6.07;;
10641;SDS011;5369;49.586;8.646;2023-12-20T08:46:00;10.10;;;6.03;;
10641;SDS011;5369;49.586;8.646;2023-12-20T08:48:26;10.43;;;6.40;;
10641;SDS011;5369;49.586;8.646;2023-12-20T08:50:52;8.37;;;5.90;;
10641;SDS011;5369;49.586;8.646;2023-12-20T08:53:18;9.40;;;6.53;;
10641;SDS011;5369;49.586;8.646;2023-12-20T08:55:45;16.30;;;9.03;;
10641;SDS011;5369;49.586;8.646;2023-12-20T08:58:11;14.83;;;9.07;;
10641;SDS011;5369;49.586;8.646;2023-12-20T09:00:37;12.37;;;8.70;;
10641;SDS011;5369;49.586;8.646;2023-12-20T09:03:04;12.03;;;7.77;;
10641;SDS011;5369;49.586;8.646;2023-12-20T09:05:30;13.13;;;7.20;;
10641;SDS011;5369;49.586;8.646;2023-12-20T09:07:56;13.00;;;7.40;;
10641;SDS011;5369;49.586;8.646;2023-12-20T09:10:22;11.67;;;6.87;;
10641;SDS011;5369;49.586;8.646;2023-12-20T09:12:52;8.47;;;5.87;;
10641;SDS011;5369;49.586;8.646;2023-12-20T09:15:24;9.53;;;6.13;;
10641;SDS011;5369;49.586;8.646;2023-12-20T09:17:51;8.93;;;5.67;;
10641;SDS011;5369;49.586;8.646;2023-12-20T09:20:17;10.17;;;5.60;;
10641;SDS011;5369;49.586;8.646;2023-12-20T09:22:43;6.23;;;4.90;;
10641;SDS011;5369;49.586;8.646;2023-12-20T09:25:10;7.43;;;5.07;;
10641;SDS011;5369;49.586;8.646;2023-12-20T09:27:36;8.53;;;5.00;;
10641;SDS011;5369;49.586;8.646;2023-12-20T09:30:02;8.40;;;4.83;;
10641;SDS011;5369;49.586;8.646;2023-12-20T09:32:31;6.10;;;4.77;;
10641;SDS011;5369;49.586;8.646;2023-12-20T09:34:57;6.67;;;4.83;;
10641;SDS011;5369;49.586;8.646;2023-12-20T09:37:25;7.57;;;4.97;;
10641;SDS011;5369;49.586;8.646;2023-12-20T09:39:52;5.60;;;4.70;;
10641;SDS011;5369;49.586;8.646;2023-12-20T09:42:21;5.40;;;4.83;;
10641;SDS011;5369;49.586;8.646;2023-12-20T09:44:49;6.97;;;4.73;;
10641;SDS011;5369;49.586;8.646;2023-12-20T09:47:15;6.87;;;4.33;;
10641;SDS011;5369;49.586;8.646;2023-12-20T09:49:46;7.33;;;3.53;;
10641;SDS011;5369;49.586;8.646;2023-12-20T09:52:12;5.90;;;2.90;;
10641;SDS011;5369;49.586;8.646;2023-12-20T09:54:38;7.07;;;3.10;;
10641;SDS011;5369;49.586;8.646;2023-12-20T09:57:06;6.00;;;2.73;;
10641;SDS011;5369;49.586;8.646;2023-12-20T09:59:32;9.20;;;3.10;;
10641;SDS011;5369;49.586;8.646;2023-12-20T10:01:58;9.70;;;3.20;;
10641;SDS011;5369;49.586;8.646;2023-12-20T10:04:28;5.97;;;2.83;;
10641;SDS011;5369;49.586;8.646;2023-12-20T10:07:01;6.07;;;2.70;;
10641;SDS011;5369;49.586;8.646;2023-12-20T10:09:29;5.77;;;3.03;;
10641;SDS011;5369;49.586;8.646;2023-12-20T10:11:56;7.93;;;3.20;;
10641;SDS011;5369;49.586;8.646;2023-12-20T10:14:22;7.23;;;3.20;;
10641;SDS011;5369;49.586;8.646;2023-12-20T10:16:48;6.40;;;3.67;;
10641;SDS011;5369;49.586;8.646;2023-12-20T10:19:16;6.43;;;3.27;;
10641;SDS011;5369;49.586;8.646;2023-12-20T10:21:43;7.23;;;3.70;;
10641;SDS011;5369;49.586;8.646;2023-12-20T10:24:10;5.27;;;3.10;;
10641;SDS011;5369;49.586;8.646;2023-12-20T10:26:42;8.73;;;2.87;;
10641;SDS011;5369;49.586;8.646;2023-12-20T10:29:08;6.53;;;3.20;;
10641;SDS011;5369;49.586;8.646;2023-12-20T10:31:36;5.30;;;2.80;;
10641;SDS011;5369;49.586;8.646;2023-12-20T10:34:05;7.23;;;3.03;;
10641;SDS011;5369;49.586;8.646;2023-12-20T10:36:32;6.83;;;2.80;;
10641;SDS011;5369;49.586;8.646;2023-12-20T10:38:58;9.00;;;3.30;;
10641;SDS011;5369;49.586;8.646;2023-12-20T10:41:26;6.37;;;2.87;;
10641;SDS011;5369;49.586;8.646;2023-12-20T10:43:56;6.17;;;3.07;;
10641;SDS011;5369;49.586;8.646;2023-12-20T10:46:24;8.27;;;2.90;;
10641;SDS011;5369;49.586;8.646;2023-12-20T10:48:53;6.23;;;2.60;;
10641;SDS011;5369;49.586;8.646;2023-12-20T10:51:20;8.57;;;2.97;;
10641;SDS011;5369;49.586;8.646;2023-12-20T10:53:47;7.43;;;2.87;;
10641;SDS011;5369;49.586;8.646;2023-12-20T10:56:15;6.07;;;2.50;;
10641;SDS011;5369;49.586;8.646;2023-12-20T10:58:42;7.90;;;3.00;;
10641;SDS011;5369;49.586;8.646;2023-12-20T11:01:08;5.83;;;2.40;;
10641;SDS011;5369;49.586;8.646;2023-12-20T11:03:35;9.17;;;2.90;;
10641;SDS011;5369;49.586;8.646;2023-12-20T11:06:18;6.30;;;2.90;;
10641;SDS011;5369;49.586;8.646;2023-12-20T11:14:05;6.70;;;2.50;;
10641;SDS011;5369;49.586;8.646;2023-12-20T11:16:36;5.67;;;2.50;;
10641;SDS011;5369;49.586;8.646;2023-12-20T11:19:06;6.40;;;2.73;;
10641;SDS011;5369;49.586;8.646;2023-12-20T11:21:32;6.73;;;2.53;;
10641;SDS011;5369;49.586;8.646;2023-12-20T11:24:01;9.10;;;3.33;;
10641;SDS011;5369;49.586;8.646;2023-12-20T11:26:28;6.70;;;2.57;;
10641;SDS011;5369;49.586;8.646;2023-12-20T11:29:28;9.13;;;2.90;;
10641;SDS011;5369;49.586;8.646;2023-12-20T11:31:47;6.83;;;2.60;;
10641;SDS011;5369;49.586;8.646;2023-12-20T11:34:13;6.73;;;2.60;;
10641;SDS011;5369;49.586;8.646;2023-12-20T11:36:39;8.90;;;2.43;;
10641;SDS011;5369;49.586;8.646;2023-12-20T11:39:06;5.53;;;2.40;;
10641;SDS011;5369;49.586;8.646;2023-12-20T11:41:34;3.93;;;2.30;;
10641;SDS011;5369;49.586;8.646;2023-12-20T11:44:00;5.57;;;2.30;;
10641;SDS011;5369;49.586;8.646;2023-12-20T11:46:26;7.90;;;2.70;;
10641;SDS011;5369;49.586;8.646;2023-12-20T11:48:52;5.80;;;3.07;;
10641;SDS011;5369;49.586;8.646;2023-12-20T11:51:18;7.00;;;2.97;;
10641;SDS011;5369;49.586;8.646;2023-12-20T11:53:45;7.83;;;2.97;;
10641;SDS011;5369;49.586;8.646;2023-12-20T11:56:11;7.70;;;2.70;;
10641;SDS011;5369;49.586;8.646;2023-12-20T11:58:37;5.97;;;2.90;;
10641;SDS011;5369;49.586;8.646;2023-12-20T12:01:04;6.53;;;2.83;;
10641;SDS011;5369;49.586;8.646;2023-12-20T12:03:32;6.07;;;2.93;;
10641;SDS011;5369;49.586;8.646;2023-12-20T12:05:58;5.47;;;2.77;;
10641;SDS011;5369;49.586;8.646;2023-12-20T12:08:26;6.60;;;2.90;;
10641;SDS011;5369;49.586;8.646;2023-12-20T12:10:52;4.80;;;2.10;;
10641;SDS011;5369;49.586;8.646;2023-12-20T12:13:18;7.67;;;3.00;;
10641;SDS011;5369;49.586;8.646;2023-12-20T12:15:44;8.87;;;2.87;;
10641;SDS011;5369;49.586;8.646;2023-12-20T12:18:10;7.67;;;3.20;;
10641;SDS011;5369;49.586;8.646;2023-12-20T12:20:37;6.07;;;2.93;;
10641;SDS011;5369;49.586;8.646;2023-12-20T12:23:03;7.23;;;2.97;;
10641;SDS011;5369;49.586;8.646;2023-12-20T12:25:31;6.00;;;2.83;;
10641;SDS011;5369;49.586;8.646;2023-12-20T12:27:57;6.07;;;3.20;;
10641;SDS011;5369;49.586;8.646;2023-12-20T12:30:24;7.70;;;2.93;;
10641;SDS011;5369;49.586;8.646;2023-12-20T12:32:50;6.83;;;2.90;;
10641;SDS011;5369;49.586;8.646;2023-12-20T12:35:17;9.60;;;3.03;;
10641;SDS011;5369;49.586;8.646;2023-12-20T12:37:43;6.47;;;2.80;;
10641;SDS011;5369;49.586;8.646;2023-12-20T12:40:10;7.83;;;3.00;;
10641;SDS011;5369;49.586;8.646;2023-12-20T12:42:36;6.50;;;2.70;;
10641;SDS011;5369;49.586;8.646;2023-12-20T12:45:03;9.83;;;3.67;;
10641;SDS011;5369;49.586;8.646;2023-12-20T12:47:29;8.70;;;3.17;;
10641;SDS011;5369;49.586;8.646;2023-12-20T12:49:56;7.30;;;3.00;;
10641;SDS011;5369;49.586;8.646;2023-12-20T12:52:22;8.23;;;3.37;;
10641;SDS011;5369;49.586;8.646;2023-12-20T12:54:48;8.17;;;3.33;;
10641;SDS011;5369;49.586;8.646;2023-12-20T12:57:14;7.37;;;3.60;;
10641;SDS011;5369;49.586;8.646;2023-12-20T12:59:41;8.27;;;3.30;;
10641;SDS011;5369;49.586;8.646;2023-12-20T13:02:09;8.87;;;3.23;;
10641;SDS011;5369;49.586;8.646;2023-12-20T13:04:35;6.20;;;3.30;;
10641;SDS011;5369;49.586;8.646;2023-12-20T13:07:01;6.90;;;3.53;;
10641;SDS011;5369;49.586;8.646;2023-12-20T13:09:27;8.83;;;3.47;;
10641;SDS011;5369;49.586;8.646;2023-12-20T13:11:53;8.43;;;3.17;;
10641;SDS011;5369;49.586;8.646;2023-12-20T13:14:19;11.80;;;3.80;;
10641;SDS011;5369;49.586;8.646;2023-12-20T13:16:47;8.87;;;3.53;;
10641;SDS011;5369;49.586;8.646;2023-12-20T13:19:13;9.47;;;3.40;;
10641;SDS011;5369;49.586;8.646;2023-12-20T13:21:39;11.83;;;3.33;;
10641;SDS011;5369;49.586;8.646;2023-12-20T13:24:06;10.30;;;3.30;;
10641;SDS011;5369;49.586;8.646;2023-12-20T13:26:32;6.93;;;3.20;;
10641;SDS011;5369;49.586;8.646;2023-12-20T13:28:58;8.03;;;3.27;;
10641;SDS011;5369;49.586;8.646;2023-12-20T13:31:24;8.23;;;2.93;;
10641;SDS011;5369;49.586;8.646;2023-12-20T13:33:51;7.53;;;2.60;;
10641;SDS011;5369;49.586;8.646;2023-12-20T13:36:17;7.03;;;3.40;;
10641;SDS011;5369;49.586;8.646;2023-12-20T13:38:44;6.83;;;4.20;;
10641;SDS011;5369;49.586;8.646;2023-12-20T13:41:10;7.23;;;3.60;;
10641;SDS011;5369;49.586;8.646;2023-12-20T13:43:37;6.10;;;2.77;;
10641;SDS011;5369;49.586;8.646;2023-12-20T13:46:03;8.00;;;2.87;;
10641;SDS011;5369;49.586;8.646;2023-12-20T13:48:29;6.90;;;2.50;;
10641;SDS011;5369;49.586;8.646;2023-12-20T13:50:56;7.90;;;3.10;;
10641;SDS011;5369;49.586;8.646;2023-12-20T13:53:22;5.73;;;2.90;;
10641;SDS011;5369;49.586;8.646;2023-12-20T13:55:48;6.37;;;3.10;;
10641;SDS011;5369;49.586;8.646;2023-12-20T13:58:15;9.80;;;3.93;;
10641;SDS011;5369;49.586;8.646;2023-12-20T14:00:41;7.57;;;3.57;;
10641;SDS011;5369;49.586;8.646;2023-12-20T14:03:07;10.30;;;3.70;;
10641;SDS011;5369;49.586;8.646;2023-12-20T14:05:35;10.73;;;3.30;;
10641;SDS011;5369;49.586;8.646;2023-12-20T14:08:01;8.30;;;3.47;;
10641;SDS011;5369;49.586;8.646;2023-12-20T14:10:28;6.97;;;3.53;;
10641;SDS011;5369;49.586;8.646;2023-12-20T14:12:54;7.93;;;3.63;;
10641;SDS011;5369;49.586;8.646;2023-12-20T14:15:23;8.07;;;3.40;;
10641;SDS011;5369;49.586;8.646;2023-12-20T14:17:50;9.80;;;3.63;;
10641;SDS011;5369;49.586;8.646;2023-12-20T14:20:16;9.97;;;3.63;;
10641;SDS011;5369;49.586;8.646;2023-12-20T14:22:43;8.33;;;3.20;;
10641;SDS011;5369;49.586;8.646;2023-12-20T14:25:12;11.87;;;3.40;;
10641;SDS011;5369;49.586;8.646;2023-12-20T14:27:39;7.70;;;3.30;;
10641;SDS011;5369;49.586;8.646;2023-12-20T14:30:06;11.17;;;3.90;;
10641;SDS011;5369;49.586;8.646;2023-12-20T14:32:34;9.30;;;3.30;;
10641;SDS011;5369;49.586;8.646;2023-12-20T14:35:02;9.63;;;3.77;;
10641;SDS011;5369;49.586;8.646;2023-12-20T14:37:29;8.27;;;3.63;;
10641;SDS011;5369;49.586;8.646;2023-12-20T14:39:55;7.67;;;3.43;;
10641;SDS011;5369;49.586;8.646;2023-12-20T14:42:22;8.33;;;3.73;;
10641;SDS011;5369;49.586;8.646;2023-12-20T14:44:48;8.27;;;3.20;;
10641;SDS011;5369;49.586;8.646;2023-12-20T14:47:14;8.03;;;3.57;;
10641;SDS011;5369;49.586;8.646;2023-12-20T14:49:41;6.93;;;3.40;;
10641;SDS011;5369;49.586;8.646;2023-12-20T14:52:07;6.83;;;3.03;;
10641;SDS011;5369;49.586;8.646;2023-12-20T14:54:37;6.43;;;3.23;;
10641;SDS011;5369;49.586;8.646;2023-12-20T14:57:03;8.03;;;3.13;;
10641;SDS011;5369;49.586;8.646;2023-12-20T14:59:29;9.27;;;4.17;;